Slingerlands, NY (12159)

7:10 PM EDT on September 02, 2014 (GMT -0400)
Wellington Ave | Change Station
CLOSE
Current Station
Personal Weather Station
Location: Albany, NY
Elevation: 260 ft
Nearby Weather Stations

Elev 260 ft 42.67 °N, 73.82 °W | Updated 3 seconds ago

Partly Cloudy
Partly Cloudy
77.4 °F
Feels Like 79 °F
N
3.0
Wind Variable Wind from South
Gusts 7.0 mph

Today
High -- | Low -- °F
--% Chance of Precip.
Yesterday
High -- | Low -- °F
Precip. -- in
6:21 AM 7:28 PM
First Quarter, 56% visible
Pressure 29.73 in
Visibility 10.0 miles
Clouds Few 9500 ft
Few 14000 ft
Scattered Clouds 25000 ft
Heat Index 79 °F
Dew Point 66 °F
Humidity 69%
Rainfall 0.43 in
Snow Depth Not available.
UV 0 out of 12
Pollen 6.80 out of 12
PM2.5 Good
Flu Activity Not available.
METAR KALB 022251Z 18003KT 10SM FEW095 FEW140 SCT250 28/22 A2973 RMK AO2 SLP067 T02780217 $

More Conditions Fewer Conditions

Pressure 29.73 in
Visibility 10.0 miles
Clouds Few 9500 ft
Few 14000 ft
Scattered Clouds 25000 ft
Heat Index 79 °F
Dew Point 66 °F
Humidity 69%
Rainfall 0.43 in
Snow Depth Not available.
UV 0 out of 12
Pollen 6.80 out of 12
PM2.5 Good
Flu Activity Not available.
METAR KALB 022251Z 18003KT 10SM FEW095 FEW140 SCT250 28/22 A2973 RMK AO2 SLP067 T02780217 $

More Conditions Fewer Conditions

10-Day Weather Forecast

Almanac

Astronomy

Sep. 02, 2014 Rise Set
Actual Time 6:21 AM EDT 7:28 PM EDT
Civil Twilight 5:52 AM EDT 7:57 PM EDT
Nautical Twilight 5:17 AM EDT 8:31 PM EDT
Astronomical Twilight 4:41 AM EDT 9:07 PM EDT
Moon 2:12 PM EDT No Moon Set
Length of Visible Light 14h 04m
Length of Day
13h 06m
Tomorrow will be 2m 47s shorter.
First Quarter, 56% of the Moon is Illuminated
Today
First Quarter
Sep 8
Full
Sep 15
Last Quarter
Sep 24
New
Oct 1
First Quarter

Today's Extremes

State Highs State Lows

Community

WunderPhotos

Upload Photos

1,749,794 photos uploaded!

Nearby

Air Quality

  Air Quality AQ Index Pollutant
Yesterday Good
OZONE
Yesterday Good
PM2.5
Current Good
PM2.5
Tuesday Good
PM2.5
Tuesday Good
OZONE
Wednesday Good
OZONE
Wednesday Good
PM2.5

Snow Depth

Station Depth Elevation
No new snow has been reported.

Earthquake Activity

City Distance Mag. Time & Date
No recent earthquake activity has been reported nearby.
Minimum magnitude displayed is 2.5.

Coastal Water Temperatures

Place Temperature
No Stations Reporting

Nearby Weather Stations